Time;durP1;ratioP1;P1;durP2;ratioP2;P2;SDS_P1;SDS_P2;PMS_P1;PMS_P2;Temp;Humidity;BMP_temperature;BMP_pressure;BME280_temperature;BME280_humidity;BME280_pressure;Samples;Min_cycle;Max_cycle;Signal;HPM_P1;HPM_P2
2023/12/21 00:00:00;;;;;;;4.30;4.00;;;4.60;99.90;;;;;;5001797;28;20315;-86
2023/12/21 00:02:26;;;;;;;5.28;4.32;;;4.70;99.90;;;;;;5002786;28;20263;-86
2023/12/21 00:04:53;;;;;;;5.13;4.50;;;4.70;99.90;;;;;;5003168;28;20531;-87
2023/12/21 00:07:22;;;;;;;4.68;3.83;;;4.70;99.90;;;;;;5003269;28;20212;-86
2023/12/21 00:09:49;;;;;;;7.32;4.63;;;4.70;99.90;;;;;;5002793;28;20277;-87
2023/12/21 00:12:16;;;;;;;5.40;4.20;;;4.70;99.90;;;;;;5002387;28;20259;-87
2023/12/21 00:14:47;;;;;;;6.97;4.78;;;4.70;99.90;;;;;;5004952;28;20266;-87
2023/12/21 00:17:14;;;;;;;5.63;4.57;;;4.80;99.90;;;;;;5004431;28;20205;-88
2023/12/21 00:19:41;;;;;;;7.07;4.80;;;4.80;99.90;;;;;;5003371;28;20231;-88
2023/12/21 00:22:11;;;;;;;6.75;5.22;;;4.80;99.90;;;;;;5002235;28;20244;-87
2023/12/21 00:24:39;;;;;;;6.88;5.45;;;4.80;99.90;;;;;;5002876;28;20235;-88
2023/12/21 00:27:06;;;;;;;7.68;6.47;;;4.80;99.90;;;;;;5002622;28;20240;-87
2023/12/21 00:29:33;;;;;;;10.05;5.85;;;4.90;99.90;;;;;;5002552;28;20232;-87
2023/12/21 00:32:00;;;;;;;9.05;6.15;;;4.90;99.90;;;;;;5002323;28;20287;-87
2023/12/21 00:34:29;;;;;;;8.80;6.60;;;4.90;99.90;;;;;;5002961;28;20275;-87
2023/12/21 00:36:56;;;;;;;9.38;7.20;;;5.00;99.90;;;;;;5003207;28;20225;-87
2023/12/21 00:39:23;;;;;;;9.35;7.55;;;5.00;99.90;;;;;;5014617;28;20244;-87
2023/12/21 00:41:51;;;;;;;7.03;5.88;;;5.10;99.90;;;;;;5019041;28;20197;-88
2023/12/21 00:44:18;;;;;;;9.77;6.25;;;5.10;99.90;;;;;;5017511;28;20277;-87
2023/12/21 00:46:45;;;;;;;12.88;7.20;;;5.10;99.90;;;;;;5013376;28;20232;-87
2023/12/21 00:49:12;;;;;;;6.63;5.53;;;5.20;99.90;;;;;;5009462;28;20224;-88
2023/12/21 00:51:39;;;;;;;6.75;5.63;;;5.20;99.90;;;;;;5008998;28;20229;-87
2023/12/21 00:54:06;;;;;;;9.63;6.60;;;5.30;99.90;;;;;;5010100;28;20308;-86
2023/12/21 00:56:35;;;;;;;8.57;5.97;;;5.30;99.90;;;;;;5006408;28;20205;-87
2023/12/21 00:59:06;;;;;;;9.10;5.60;;;5.40;99.90;;;;;;5009799;28;20313;-87
2023/12/21 01:01:36;;;;;;;7.07;5.53;;;5.40;99.90;;;;;;5010280;28;20224;-86
2023/12/21 01:04:03;;;;;;;6.65;4.78;;;5.50;99.90;;;;;;5003812;28;20225;-87
2023/12/21 01:06:30;;;;;;;6.28;5.07;;;5.50;99.90;;;;;;5002462;28;20340;-87
2023/12/21 01:08:57;;;;;;;6.10;4.93;;;5.60;99.90;;;;;;5002634;28;20260;-88
2023/12/21 01:11:24;;;;;;;7.70;5.07;;;5.60;99.90;;;;;;5000703;28;20211;-86
2023/12/21 01:13:51;;;;;;;10.70;4.40;;;5.70;99.90;;;;;;5007660;28;20225;-86
2023/12/21 01:16:19;;;;;;;6.70;4.13;;;5.70;1.00;;;;;;5001903;28;20205;-87
2023/12/21 01:18:46;;;;;;;4.50;4.10;;;5.80;1.00;;;;;;5011123;28;20227;-87
2023/12/21 01:21:13;;;;;;;7.78;4.55;;;5.90;1.00;;;;;;5018924;28;20260;-87
2023/12/21 01:23:40;;;;;;;5.15;3.40;;;5.90;1.00;;;;;;5018393;28;20229;-88
2023/12/21 01:26:07;;;;;;;4.55;3.53;;;5.90;1.00;;;;;;5014375;28;20205;-87
2023/12/21 01:28:34;;;;;;;3.97;3.50;;;5.90;99.90;;;;;;5007651;28;20216;-87
2023/12/21 01:31:01;;;;;;;8.40;3.38;;;6.00;99.90;;;;;;5007166;28;20204;-88
2023/12/21 01:33:29;;;;;;;3.53;3.20;;;6.00;99.90;;;;;;5008018;28;20263;-87
2023/12/21 01:35:56;;;;;;;3.53;3.20;;;6.10;99.90;;;;;;5004448;28;20205;-85
2023/12/21 01:38:23;;;;;;;2.67;2.47;;;6.20;99.90;;;;;;5006333;28;20199;-86
2023/12/21 01:40:50;;;;;;;3.70;3.03;;;6.20;99.90;;;;;;5005700;28;20311;-86
2023/12/21 01:43:17;;;;;;;2.95;2.75;;;6.30;99.90;;;;;;5006991;28;20308;-85
2023/12/21 01:45:44;;;;;;;3.58;2.70;;;6.30;99.90;;;;;;5007126;28;20195;-85
2023/12/21 01:48:12;;;;;;;3.25;2.95;;;6.30;99.90;;;;;;5001986;28;20248;-85
2023/12/21 01:50:41;;;;;;;2.92;2.72;;;6.40;99.90;;;;;;5000655;28;20207;-85
2023/12/21 01:53:11;;;;;;;2.85;2.60;;;6.40;99.90;;;;;;5000335;28;20221;-85
2023/12/21 01:55:39;;;;;;;2.50;2.30;;;6.40;99.90;;;;;;5001563;28;20225;-86
2023/12/21 01:58:06;;;;;;;2.70;2.50;;;6.40;99.90;;;;;;5002091;28;20213;-86
2023/12/21 02:00:33;;;;;;;2.30;2.10;;;6.40;99.90;;;;;;5009106;28;20255;-86
2023/12/21 02:03:00;;;;;;;2.28;2.17;;;6.50;99.90;;;;;;5015557;28;20284;-85
2023/12/21 02:05:27;;;;;;;5.65;2.08;;;6.50;99.90;;;;;;5016847;28;20209;-86
2023/12/21 02:07:55;;;;;;;3.72;1.88;;;6.50;99.90;;;;;;5017231;28;20256;-85
2023/12/21 02:10:22;;;;;;;2.17;2.03;;;6.60;99.90;;;;;;5005527;28;20201;-86
2023/12/21 02:12:49;;;;;;;2.28;2.17;;;6.50;99.90;;;;;;5001308;28;20335;-85
2023/12/21 02:15:16;;;;;;;2.20;2.10;;;6.50;99.90;;;;;;5000548;28;20224;-86
2023/12/21 02:17:46;;;;;;;2.38;2.15;;;6.60;99.90;;;;;;4998998;28;20697;-87
2023/12/21 02:20:13;;;;;;;2.75;2.55;;;6.50;99.90;;;;;;5000528;28;20216;-86
2023/12/21 02:22:43;;;;;;;2.00;1.90;;;6.60;1.00;;;;;;4998287;28;20229;-86
2023/12/21 02:25:12;;;;;;;2.53;2.33;;;6.60;1.00;;;;;;4998260;28;20194;-86
2023/12/21 02:27:39;;;;;;;2.50;2.15;;;6.60;1.00;;;;;;4999538;28;20240;-87
2023/12/21 02:30:07;;;;;;;1.75;1.65;;;6.70;1.00;;;;;;5001359;28;20219;-86
2023/12/21 02:32:34;;;;;;;2.00;1.90;;;6.70;1.00;;;;;;4997679;28;20240;-86
2023/12/21 02:35:01;;;;;;;2.45;2.30;;;6.70;1.00;;;;;;4998572;28;20435;-86
2023/12/21 02:37:28;;;;;;;2.47;2.28;;;6.70;1.00;;;;;;5001112;28;20232;-86
2023/12/21 02:39:56;;;;;;;2.60;2.03;;;6.70;1.00;;;;;;5003353;28;20220;-85
2023/12/21 02:42:25;;;;;;;1.92;1.83;;;6.70;1.00;;;;;;4999787;28;20228;-85
2023/12/21 02:44:51;;;;;;;2.40;2.22;;;6.80;1.00;;;;;;5012913;28;20252;-82
2023/12/21 02:47:18;;;;;;;3.42;1.73;;;6.70;1.00;;;;;;5018868;28;20216;-84
2023/12/21 02:49:45;;;;;;;1.90;1.80;;;6.80;1.00;;;;;;5018915;28;20251;-84
2023/12/21 02:52:13;;;;;;;2.70;2.50;;;6.80;1.00;;;;;;5018707;28;20212;-84
2023/12/21 02:54:40;;;;;;;1.80;1.70;;;6.80;1.00;;;;;;5022510;28;20216;-85
2023/12/21 02:57:07;;;;;;;2.08;1.88;;;6.80;1.00;;;;;;5022639;28;20181;-86
2023/12/21 02:59:35;;;;;;;2.00;1.90;;;6.80;1.00;;;;;;5022791;28;20233;-85
2023/12/21 03:02:02;;;;;;;2.00;1.90;;;6.80;1.00;;;;;;5019506;28;20217;-84
2023/12/21 03:04:29;;;;;;;1.80;1.70;;;6.80;1.00;;;;;;5002654;28;20684;-85
2023/12/21 03:06:55;;;;;;;1.60;1.50;;;6.80;1.00;;;;;;5001092;28;20211;-86
2023/12/21 03:09:22;;;;;;;1.77;1.50;;;6.80;1.00;;;;;;5001541;28;20215;-86
2023/12/21 03:11:49;;;;;;;2.22;2.13;;;6.80;1.00;;;;;;5002331;28;20224;-85
2023/12/21 03:14:16;;;;;;;2.28;2.08;;;6.80;1.00;;;;;;5000082;28;20227;-86
2023/12/21 03:16:44;;;;;;;2.50;1.90;;;6.80;1.00;;;;;;5000129;28;20288;-85
2023/12/21 03:19:12;;;;;;;2.33;2.20;;;6.80;1.00;;;;;;4999842;28;20304;-85
2023/12/21 03:21:39;;;;;;;1.88;1.77;;;6.80;1.00;;;;;;4998816;28;20225;-85
2023/12/21 03:24:06;;;;;;;2.38;2.28;;;6.90;1.00;;;;;;4999387;28;20675;-85
2023/12/21 03:26:35;;;;;;;2.95;2.75;;;6.90;1.00;;;;;;5000743;28;20205;-86
2023/12/21 03:29:02;;;;;;;2.33;2.13;;;6.90;1.00;;;;;;5016365;28;20574;-86
2023/12/21 03:31:29;;;;;;;2.72;2.58;;;6.90;1.00;;;;;;5001200;28;20228;-85
2023/12/21 03:33:57;;;;;;;2.03;1.90;;;6.90;1.00;;;;;;5026647;22;20280;-87
2023/12/21 03:36:26;;;;;;;3.20;3.00;;;6.90;1.00;;;;;;5019733;28;20225;-88
2023/12/21 03:38:53;;;;;;;3.35;3.05;;;6.90;1.00;;;;;;5014289;28;20205;-87
2023/12/21 03:41:20;;;;;;;3.60;3.40;;;6.90;1.00;;;;;;5002319;28;20617;-88
2023/12/21 03:43:46;;;;;;;2.95;2.75;;;6.90;1.00;;;;;;5000062;28;20228;-88
2023/12/21 03:46:13;;;;;;;3.60;3.30;;;6.90;1.00;;;;;;5000000;28;20205;-88
2023/12/21 03:48:40;;;;;;;4.60;4.20;;;6.90;1.00;;;;;;4999685;28;20704;-87
2023/12/21 03:51:08;;;;;;;3.97;3.75;;;6.90;1.00;;;;;;5000417;28;20211;-87
2023/12/21 03:53:35;;;;;;;3.63;3.42;;;7.00;1.00;;;;;;5000963;28;20744;-89
2023/12/21 03:56:02;;;;;;;3.88;3.67;;;7.00;1.00;;;;;;5015903;28;20277;-88
2023/12/21 03:58:29;;;;;;;3.90;3.60;;;7.00;1.00;;;;;;5017460;28;20209;-88
2023/12/21 04:00:55;;;;;;;3.72;3.42;;;7.00;1.00;;;;;;4999921;28;20293;-88
2023/12/21 04:03:22;;;;;;;3.47;3.28;;;7.10;1.00;;;;;;4999726;28;20225;-88
2023/12/21 04:05:49;;;;;;;3.58;3.28;;;7.10;1.00;;;;;;4999484;28;20201;-88
2023/12/21 04:08:21;;;;;;;3.40;3.20;;;7.10;1.00;;;;;;5008514;28;20662;-88
2023/12/21 04:10:47;;;;;;;3.00;2.80;;;7.10;1.00;;;;;;5000319;28;20192;-87
2023/12/21 04:13:15;;;;;;;4.35;3.95;;;7.10;1.00;;;;;;5001346;28;20229;-88
2023/12/21 04:15:42;;;;;;;4.28;3.97;;;7.10;1.00;;;;;;5001311;28;20205;-88
2023/12/21 04:18:09;;;;;;;3.92;3.53;;;7.10;1.00;;;;;;5001555;28;20205;-88
2023/12/21 04:20:36;;;;;;;3.53;3.22;;;7.20;1.00;;;;;;5007075;28;20217;-89
2023/12/21 04:23:02;;;;;;;3.53;3.03;;;7.20;1.00;;;;;;5009889;28;20312;-88
2023/12/21 04:25:30;;;;;;;3.45;3.15;;;7.20;1.00;;;;;;5001706;28;20452;-89
2023/12/21 04:27:57;;;;;;;3.80;3.07;;;7.20;1.00;;;;;;5002147;28;20209;-88
2023/12/21 04:30:24;;;;;;;2.97;2.75;;;7.20;1.00;;;;;;5000893;28;20448;-88
2023/12/21 04:32:51;;;;;;;2.90;2.70;;;7.30;1.00;;;;;;5004244;28;20228;-88
2023/12/21 04:35:18;;;;;;;3.23;3.03;;;7.30;1.00;;;;;;5009061;28;20217;-88
2023/12/21 04:37:44;;;;;;;5.43;3.53;;;7.30;1.00;;;;;;5013217;28;20450;-86
2023/12/21 04:40:12;;;;;;;3.23;3.03;;;7.30;1.00;;;;;;5017902;28;20480;-87
2023/12/21 04:42:41;;;;;;;3.47;3.27;;;7.30;1.00;;;;;;5018598;28;20491;-87
2023/12/21 04:45:09;;;;;;;4.17;3.87;;;7.40;1.00;;;;;;5017706;28;20447;-87
2023/12/21 04:47:38;;;;;;;3.03;2.83;;;7.40;1.00;;;;;;5005382;28;20445;-88
2023/12/21 04:50:05;;;;;;;4.03;3.72;;;7.40;1.00;;;;;;5001366;28;20483;-86
2023/12/21 04:52:32;;;;;;;3.40;3.20;;;7.40;1.00;;;;;;5010453;28;20204;-87
2023/12/21 04:54:59;;;;;;;3.07;2.87;;;7.50;1.00;;;;;;5013421;28;20292;-87
2023/12/21 04:57:25;;;;;;;2.90;2.70;;;7.60;1.00;;;;;;5000213;28;20425;-87
2023/12/21 04:59:53;;;;;;;2.90;2.70;;;7.60;1.00;;;;;;4999413;28;20220;-87
2023/12/21 05:02:20;;;;;;;4.10;3.33;;;7.60;1.00;;;;;;5000601;28;20932;-87
2023/12/21 05:04:47;;;;;;;3.77;2.70;;;7.60;1.00;;;;;;5000911;28;21019;-88
2023/12/21 05:07:14;;;;;;;3.00;2.80;;;7.60;1.00;;;;;;5000949;28;20491;-88
2023/12/21 05:09:41;;;;;;;3.58;3.28;;;7.70;1.00;;;;;;5007461;28;20259;-88
2023/12/21 05:12:08;;;;;;;3.37;3.17;;;7.70;1.00;;;;;;5009307;28;20236;-88
2023/12/21 05:14:35;;;;;;;3.07;2.87;;;7.70;1.00;;;;;;5012814;28;20451;-87
2023/12/21 05:17:03;;;;;;;4.03;2.50;;;7.70;1.00;;;;;;5000451;28;20563;-88
2023/12/21 05:19:30;;;;;;;2.70;2.50;;;7.80;1.00;;;;;;4999778;28;20524;-88
2023/12/21 05:21:57;;;;;;;2.33;2.23;;;7.80;1.00;;;;;;5000333;28;20459;-87
2023/12/21 05:24:24;;;;;;;2.00;1.90;;;7.80;1.00;;;;;;5000620;28;20531;-87
2023/12/21 05:26:51;;;;;;;2.80;2.60;;;7.80;1.00;;;;;;5009304;28;20512;-87
2023/12/21 05:29:18;;;;;;;2.03;1.90;;;7.80;1.00;;;;;;5012758;28;20783;-87
2023/12/21 05:31:44;;;;;;;2.37;2.27;;;7.80;1.00;;;;;;5001028;28;20444;-87
2023/12/21 05:34:12;;;;;;;2.80;2.60;;;7.80;1.00;;;;;;5002205;28;20454;-87
2023/12/21 05:36:40;;;;;;;2.60;2.40;;;7.80;1.00;;;;;;5008629;28;20517;-88
2023/12/21 05:39:09;;;;;;;2.40;2.20;;;7.80;1.00;;;;;;5000410;28;20479;-88
2023/12/21 05:41:36;;;;;;;7.50;2.50;;;7.90;1.00;;;;;;5008137;28;20468;-88
2023/12/21 05:44:03;;;;;;;2.50;2.30;;;7.90;1.00;;;;;;4999647;28;20475;-89
2023/12/21 05:46:30;;;;;;;2.20;2.10;;;7.90;1.00;;;;;;4998688;28;20448;-88
2023/12/21 05:48:56;;;;;;;2.40;2.30;;;7.90;1.00;;;;;;5003519;28;20450;-87
2023/12/21 05:51:24;;;;;;;3.73;2.13;;;7.90;1.00;;;;;;5008919;28;20510;-88
2023/12/21 05:53:51;;;;;;;3.60;3.30;;;7.90;1.00;;;;;;5003318;28;20482;-88
2023/12/21 05:56:18;;;;;;;9.40;3.03;;;7.90;1.00;;;;;;5009019;28;20444;-88
2023/12/21 05:58:45;;;;;;;2.43;2.33;;;7.90;1.00;;;;;;5008300;28;20496;-88
2023/12/21 06:01:12;;;;;;;2.87;2.60;;;7.90;1.00;;;;;;5003346;28;20558;-88
2023/12/21 06:03:38;;;;;;;2.63;2.43;;;7.90;1.00;;;;;;5004973;28;20559;-88
2023/12/21 06:06:06;;;;;;;2.80;2.60;;;7.90;1.00;;;;;;5008182;28;20527;-88
2023/12/21 06:08:34;;;;;;;2.90;2.43;;;7.90;1.00;;;;;;5018404;28;20436;-88
2023/12/21 06:11:01;;;;;;;3.27;2.87;;;7.90;1.00;;;;;;5014408;28;20459;-88
2023/12/21 06:13:29;;;;;;;2.43;2.23;;;7.90;1.00;;;;;;5006702;28;20520;-88
2023/12/21 06:15:56;;;;;;;4.40;2.80;;;7.90;1.00;;;;;;5007605;28;20462;-88
2023/12/21 06:18:23;;;;;;;2.00;1.90;;;7.90;1.00;;;;;;5016923;28;20556;-88
2023/12/21 06:20:50;;;;;;;2.13;2.00;;;7.90;1.00;;;;;;5011847;28;20501;-88
2023/12/21 06:23:17;;;;;;;2.30;2.20;;;7.90;1.00;;;;;;5002641;28;20466;-89
2023/12/21 06:25:45;;;;;;;2.90;2.70;;;7.90;1.00;;;;;;5001157;28;20488;-89
2023/12/21 06:28:12;;;;;;;2.50;2.40;;;7.90;1.00;;;;;;4999407;28;20937;-89
2023/12/21 06:30:39;;;;;;;2.70;2.00;;;7.90;1.00;;;;;;5002209;28;20519;-88
2023/12/21 06:33:06;;;;;;;2.03;1.93;;;7.90;1.00;;;;;;4999319;28;20502;-88
2023/12/21 06:35:33;;;;;;;3.50;3.20;;;7.90;1.00;;;;;;5000954;28;20471;-90
2023/12/21 06:38:00;;;;;;;5.20;3.33;;;7.90;1.00;;;;;;4999155;28;20448;-88
2023/12/21 06:40:27;;;;;;;2.63;2.43;;;7.90;1.00;;;;;;4999307;28;20448;-90
2023/12/21 06:42:55;;;;;;;3.10;2.87;;;7.90;1.00;;;;;;5000037;28;20451;-89
2023/12/21 06:45:22;;;;;;;2.37;2.27;;;7.90;1.00;;;;;;5000468;28;20455;-88
2023/12/21 06:47:49;;;;;;;2.80;2.60;;;7.70;1.00;;;;;;4999119;28;20970;-89
2023/12/21 06:50:16;;;;;;;3.07;2.77;;;7.60;1.00;;;;;;5000780;28;20448;-88
2023/12/21 06:52:43;;;;;;;2.83;2.63;;;7.60;1.00;;;;;;5005330;28;20455;-88
2023/12/21 06:55:10;;;;;;;3.37;2.57;;;7.50;1.00;;;;;;4998673;28;20422;-88
2023/12/21 06:57:36;;;;;;;3.13;2.90;;;7.50;1.00;;;;;;4998268;28;20437;-88
2023/12/21 07:00:06;;;;;;;3.80;3.50;;;7.50;1.00;;;;;;4998904;28;20205;-88
2023/12/21 07:02:33;;;;;;;3.95;3.42;;;7.50;1.00;;;;;;4999639;28;20523;-88
2023/12/21 07:05:00;;;;;;;3.40;2.80;;;7.50;1.00;;;;;;5000069;28;20211;-88
2023/12/21 07:07:27;;;;;;;3.17;2.92;;;7.40;1.00;;;;;;5001180;28;20452;-88
2023/12/21 07:09:54;;;;;;;3.50;3.03;;;7.40;1.00;;;;;;5000661;28;20287;-87
2023/12/21 07:12:21;;;;;;;2.00;1.80;;;7.40;1.00;;;;;;5001800;28;20471;-88
2023/12/21 07:14:48;;;;;;;2.57;2.37;;;7.40;1.00;;;;;;5004143;28;20487;-89
2023/12/21 07:17:16;;;;;;;2.38;2.17;;;7.40;1.00;;;;;;5006442;28;21048;-89
2023/12/21 07:19:43;;;;;;;1.98;1.65;;;7.40;1.00;;;;;;5008194;28;20338;-88
2023/12/21 07:22:13;;;;;;;2.88;2.10;;;7.40;1.00;;;;;;5017800;28;20256;-89
2023/12/21 07:24:40;;;;;;;4.25;2.92;;;7.30;1.00;;;;;;5003875;28;20308;-89
2023/12/21 07:27:07;;;;;;;2.60;2.40;;;7.40;1.00;;;;;;4999256;28;20205;-89
2023/12/21 07:29:33;;;;;;;3.10;2.17;;;7.40;1.00;;;;;;5000188;28;20459;-89
2023/12/21 07:32:00;;;;;;;2.80;2.60;;;7.30;1.00;;;;;;4998661;28;20539;-89
2023/12/21 07:34:29;;;;;;;5.60;2.80;;;7.30;1.00;;;;;;4999180;28;20511;-89
2023/12/21 07:36:56;;;;;;;2.20;2.10;;;7.30;1.00;;;;;;4998027;28;20449;-89
2023/12/21 07:39:23;;;;;;;2.50;2.30;;;7.30;1.00;;;;;;5000889;28;20562;-89
2023/12/21 07:41:50;;;;;;;2.53;2.25;;;7.40;1.00;;;;;;5002395;28;20225;-89
2023/12/21 07:44:16;;;;;;;1.87;1.77;;;7.40;1.00;;;;;;5006240;28;20267;-89
2023/12/21 07:46:43;;;;;;;2.00;1.90;;;7.30;1.00;;;;;;5007590;28;20530;-89
2023/12/21 07:49:10;;;;;;;2.50;1.90;;;7.40;1.00;;;;;;5003528;28;20297;-89
2023/12/21 07:51:38;;;;;;;2.70;2.60;;;7.40;1.00;;;;;;5003247;28;20499;-89
2023/12/21 07:54:05;;;;;;;5.43;4.53;;;7.40;1.00;;;;;;5002268;28;20248;-89
2023/12/21 07:56:32;;;;;;;3.30;2.70;;;7.40;1.00;;;;;;5002034;28;20213;-88
2023/12/21 07:59:04;;;;;;;2.90;2.60;;;7.40;1.00;;;;;;5010316;28;20272;-88
2023/12/21 08:01:31;;;;;;;2.00;1.90;;;7.40;1.00;;;;;;5012748;28;20205;-88
2023/12/21 08:03:58;;;;;;;2.72;2.38;;;7.40;1.00;;;;;;5007518;28;20225;-88
2023/12/21 08:06:25;;;;;;;2.55;2.00;;;7.40;1.00;;;;;;5002353;28;20272;-88
2023/12/21 08:08:53;;;;;;;2.10;2.00;;;7.40;1.00;;;;;;5009155;28;20209;-87
2023/12/21 08:11:20;;;;;;;2.20;2.10;;;7.50;1.00;;;;;;5006791;28;20471;-88
2023/12/21 08:13:48;;;;;;;3.30;3.10;;;7.50;1.00;;;;;;5004655;28;20263;-88
2023/12/21 08:16:15;;;;;;;2.03;1.92;;;7.50;1.00;;;;;;5007763;28;20422;-88
2023/12/21 08:18:42;;;;;;;2.57;2.37;;;7.60;1.00;;;;;;5003507;28;20208;-87
2023/12/21 08:21:09;;;;;;;2.65;2.25;;;7.50;1.00;;;;;;5003460;28;20483;-88
2023/12/21 08:23:36;;;;;;;1.90;1.80;;;7.50;1.00;;;;;;5001588;28;20235;-87
2023/12/21 08:26:05;;;;;;;2.72;2.53;;;7.50;1.00;;;;;;5002488;28;20207;-87
2023/12/21 08:28:32;;;;;;;1.73;1.63;;;7.50;1.00;;;;;;5002153;28;20209;-88
2023/12/21 08:31:01;;;;;;;2.13;2.03;;;7.60;1.00;;;;;;5005375;28;20236;-88
2023/12/21 08:33:28;;;;;;;2.08;1.98;;;7.60;1.00;;;;;;5003594;28;20480;-88
2023/12/21 08:35:54;;;;;;;1.85;1.73;;;7.60;1.00;;;;;;5003178;28;20239;-88
2023/12/21 08:38:21;;;;;;;1.60;1.50;;;7.60;1.00;;;;;;5003092;28;20207;-88
2023/12/21 08:40:48;;;;;;;1.75;1.65;;;7.60;1.00;;;;;;5012934;28;20205;-88
2023/12/21 08:43:16;;;;;;;1.83;1.73;;;7.60;1.00;;;;;;5012595;28;20297;-88
2023/12/21 08:45:43;;;;;;;1.90;1.80;;;7.60;1.00;;;;;;5011333;28;20854;-89
2023/12/21 08:48:10;;;;;;;1.98;1.88;;;7.60;1.00;;;;;;5007554;28;20201;-89
2023/12/21 08:50:37;;;;;;;2.22;1.75;;;7.60;1.00;;;;;;5004183;28;20208;-89
2023/12/21 08:53:04;;;;;;;1.83;1.73;;;7.60;1.00;;;;;;5017726;28;20235;-87
2023/12/21 08:55:31;;;;;;;1.93;1.47;;;7.60;1.00;;;;;;5010664;28;20443;-88
2023/12/21 08:57:59;;;;;;;1.60;1.50;;;7.70;1.00;;;;;;5010600;28;20479;-88
2023/12/21 09:00:27;;;;;;;1.40;1.30;;;7.60;1.00;;;;;;5011794;28;20443;-88
2023/12/21 09:02:54;;;;;;;2.78;1.33;;;7.60;1.00;;;;;;5009669;28;20229;-88
2023/12/21 09:05:20;;;;;;;1.20;1.20;;;7.60;1.00;;;;;;5017601;28;20268;-88
2023/12/21 09:07:47;;;;;;;1.60;1.50;;;7.60;1.00;;;;;;5020231;28;20463;-89
2023/12/21 09:10:14;;;;;;;1.75;1.30;;;7.60;1.00;;;;;;5009016;28;20476;-89
2023/12/21 09:12:41;;;;;;;1.50;1.40;;;7.60;1.00;;;;;;5006267;28;20224;-88
2023/12/21 09:15:09;;;;;;;1.87;1.37;;;7.70;1.00;;;;;;5004940;28;20452;-89
2023/12/21 09:17:37;;;;;;;1.37;1.27;;;7.70;1.00;;;;;;5008613;28;20444;-88
2023/12/21 09:20:05;;;;;;;1.13;1.10;;;7.70;1.00;;;;;;5005969;28;20467;-88
2023/12/21 09:22:32;;;;;;;1.77;1.40;;;7.70;1.00;;;;;;5003370;28;20571;-89
2023/12/21 09:25:01;;;;;;;1.50;1.40;;;7.70;1.00;;;;;;5003889;28;20209;-88
2023/12/21 09:27:30;;;;;;;4.03;1.43;;;7.70;1.00;;;;;;5012385;28;20441;-88
2023/12/21 09:29:57;;;;;;;1.10;1.10;;;7.70;1.00;;;;;;5016218;28;20426;-88
2023/12/21 09:32:24;;;;;;;1.37;1.30;;;7.70;1.00;;;;;;5017199;28;20520;-87
2023/12/21 09:34:52;;;;;;;1.00;1.00;;;7.80;1.00;;;;;;5014798;28;20526;-87
2023/12/21 09:37:19;;;;;;;1.88;1.40;;;7.80;1.00;;;;;;5013317;28;20216;-88
2023/12/21 09:39:46;;;;;;;2.90;1.75;;;7.90;1.00;;;;;;5007107;28;20211;-88
2023/12/21 09:42:16;;;;;;;5.47;2.93;;;7.90;1.00;;;;;;5003998;28;20328;-88
2023/12/21 09:44:46;;;;;;;2.10;1.90;;;7.90;1.00;;;;;;5004189;28;20547;-88
2023/12/21 09:47:16;;;;;;;1.43;1.30;;;7.80;1.00;;;;;;5011021;28;20432;-88
2023/12/21 09:49:44;;;;;;;1.80;1.70;;;7.90;1.00;;;;;;5010390;28;20411;-88
2023/12/21 09:52:13;;;;;;;1.07;1.00;;;7.90;1.00;;;;;;5010572;28;20480;-88
2023/12/21 09:54:42;;;;;;;1.43;1.33;;;7.90;1.00;;;;;;5003188;28;20556;-89
2023/12/21 09:57:10;;;;;;;1.27;1.13;;;7.90;1.00;;;;;;4999151;28;20531;-88
2023/12/21 09:59:36;;;;;;;1.10;1.00;;;7.90;1.00;;;;;;4999950;28;20456;-87
2023/12/21 10:02:11;;;;;;;1.20;1.10;;;7.90;1.00;;;;;;4998437;28;20515;-88
2023/12/21 10:04:40;;;;;;;1.30;1.20;;;8.00;1.00;;;;;;5005413;28;20243;-88
2023/12/21 10:07:09;;;;;;;1.10;1.00;;;8.00;1.00;;;;;;5014983;28;20478;-88
2023/12/21 10:09:37;;;;;;;1.63;1.13;;;8.00;1.00;;;;;;5014922;28;20448;-87
2023/12/21 10:12:06;;;;;;;2.23;1.00;;;7.90;1.00;;;;;;5015675;28;20411;-88
2023/12/21 10:14:32;;;;;;;1.40;0.93;;;8.00;1.00;;;;;;5016692;28;20471;-88
2023/12/21 10:16:59;;;;;;;1.27;1.00;;;8.10;1.00;;;;;;5015117;28;20491;-88
2023/12/21 10:19:26;;;;;;;1.00;1.00;;;8.10;1.00;;;;;;5003213;28;20432;-88
2023/12/21 10:21:53;;;;;;;0.90;0.90;;;8.00;1.00;;;;;;5000302;28;20315;-89
2023/12/21 10:24:20;;;;;;;2.03;1.10;;;8.00;1.00;;;;;;5000540;28;20453;-89
2023/12/21 10:26:50;;;;;;;1.43;1.23;;;8.00;1.00;;;;;;4999268;28;20543;-89
2023/12/21 10:29:18;;;;;;;1.27;1.17;;;8.00;1.00;;;;;;5000315;28;20432;-89
2023/12/21 10:31:46;;;;;;;1.40;1.30;;;8.00;1.00;;;;;;4999965;28;20531;-89
2023/12/21 10:34:12;;;;;;;1.60;1.50;;;8.00;1.00;;;;;;4999039;28;20454;-89
2023/12/21 10:36:44;;;;;;;1.70;1.20;;;8.20;1.00;;;;;;4999102;28;20235;-89
2023/12/21 10:39:12;;;;;;;1.80;1.20;;;8.10;1.00;;;;;;5000022;28;20539;-89
2023/12/21 10:41:42;;;;;;;1.60;1.50;;;8.20;1.00;;;;;;4999473;28;20446;-89
2023/12/21 10:44:12;;;;;;;1.17;1.07;;;8.20;1.00;;;;;;5000894;28;20472;-87
2023/12/21 10:46:41;;;;;;;0.90;0.90;;;8.20;1.00;;;;;;4999772;28;20444;-88
2023/12/21 10:49:10;;;;;;;0.77;0.77;;;8.20;1.00;;;;;;5005867;28;20444;-88
2023/12/21 10:51:39;;;;;;;1.43;1.20;;;8.20;1.00;;;;;;5015173;28;20468;-88
2023/12/21 10:54:08;;;;;;;0.80;0.80;;;8.20;1.00;;;;;;5013600;28;20460;-88
2023/12/21 10:56:36;;;;;;;1.67;1.20;;;8.20;1.00;;;;;;5007603;28;20219;-89
2023/12/21 10:59:05;;;;;;;1.90;1.00;;;8.20;1.00;;;;;;5006522;28;20448;-88
2023/12/21 11:01:34;;;;;;;1.37;0.90;;;8.20;1.00;;;;;;5005888;28;20456;-91
2023/12/21 11:04:01;;;;;;;0.90;0.90;;;8.20;1.00;;;;;;5009010;28;20491;-88
2023/12/21 11:06:28;;;;;;;0.80;0.80;;;8.20;1.00;;;;;;5008786;28;20445;-89
2023/12/21 11:08:55;;;;;;;1.23;1.10;;;8.20;1.00;;;;;;5014133;28;20516;-90
2023/12/21 11:11:23;;;;;;;1.33;1.23;;;8.20;1.00;;;;;;5008195;28;20471;-88
2023/12/21 11:13:52;;;;;;;2.63;2.20;;;8.20;1.00;;;;;;5003365;28;20474;-90
2023/12/21 11:16:24;;;;;;;1.10;1.10;;;8.20;1.00;;;;;;5007704;28;20430;-89
2023/12/21 11:18:56;;;;;;;1.40;1.20;;;8.30;1.00;;;;;;5009405;28;20208;-88
2023/12/21 11:21:26;;;;;;;1.73;1.20;;;8.20;1.00;;;;;;5008749;28;20463;-89
2023/12/21 11:23:53;;;;;;;1.00;1.00;;;8.30;1.00;;;;;;5010563;28;20491;-89
2023/12/21 11:26:21;;;;;;;1.00;1.00;;;8.30;1.00;;;;;;5007310;28;20519;-88
2023/12/21 11:28:49;;;;;;;1.00;0.97;;;8.40;99.90;;;;;;5003590;28;21003;-88
2023/12/21 11:31:18;;;;;;;1.13;1.03;;;8.40;99.90;;;;;;5004290;28;20431;-88
2023/12/21 11:33:46;;;;;;;1.30;1.20;;;8.40;99.90;;;;;;5009739;28;20470;-88
2023/12/21 11:36:25;;;;;;;1.40;1.30;;;8.40;99.90;;;;;;5012362;28;20539;-89
2023/12/21 11:38:53;;;;;;;1.10;1.00;;;8.40;99.90;;;;;;5007303;28;20811;-89
2023/12/21 11:41:23;;;;;;;3.53;1.10;;;8.40;1.00;;;;;;5009129;28;20513;-88
2023/12/21 11:43:57;;;;;;;1.20;1.20;;;8.40;1.00;;;;;;5005270;28;20473;-88
2023/12/21 11:46:25;;;;;;;1.20;1.10;;;8.40;1.00;;;;;;5003473;28;20459;-88
2023/12/21 11:48:52;;;;;;;0.90;0.90;;;8.40;1.00;;;;;;5007155;28;20523;-88
2023/12/21 11:51:20;;;;;;;2.03;1.17;;;8.40;1.00;;;;;;5005336;28;20498;-88
2023/12/21 11:53:48;;;;;;;1.40;1.17;;;8.40;1.00;;;;;;5014704;28;20528;-89
2023/12/21 11:56:15;;;;;;;1.43;1.13;;;8.40;1.00;;;;;;5004646;28;20437;-87
2023/12/21 11:58:43;;;;;;;1.37;1.10;;;8.40;1.00;;;;;;5001683;28;20506;-89
2023/12/21 12:01:22;;;;;;;1.27;1.10;;;8.40;1.00;;;;;;5002710;28;20777;-88
2023/12/21 12:03:49;;;;;;;1.40;1.30;;;8.50;1.00;;;;;;5021267;28;20510;-89
2023/12/21 12:06:16;;;;;;;1.17;1.17;;;8.40;1.00;;;;;;5020615;28;20411;-88
2023/12/21 12:08:43;;;;;;;1.73;1.33;;;8.50;1.00;;;;;;5017344;28;20455;-88
2023/12/21 12:11:13;;;;;;;0.90;0.90;;;8.50;1.00;;;;;;5015652;28;20452;-88
2023/12/21 12:13:40;;;;;;;1.40;1.30;;;8.50;1.00;;;;;;5007155;28;20471;-88
2023/12/21 12:16:08;;;;;;;1.40;1.30;;;8.50;1.00;;;;;;5018140;28;20449;-89
2023/12/21 12:18:35;;;;;;;1.20;1.00;;;8.50;1.00;;;;;;5018324;28;20419;-89
2023/12/21 12:21:03;;;;;;;0.80;0.80;;;8.50;1.00;;;;;;5018550;28;20484;-89
2023/12/21 12:23:30;;;;;;;2.20;1.30;;;8.50;1.00;;;;;;5018304;28;20526;-88
2023/12/21 12:25:57;;;;;;;0.90;0.90;;;8.60;1.00;;;;;;5010286;28;20448;-89
2023/12/21 12:28:26;;;;;;;1.50;1.00;;;8.60;1.00;;;;;;5004119;28;20452;-88
2023/12/21 12:30:55;;;;;;;0.93;0.93;;;8.60;1.00;;;;;;5004696;28;20920;-89
2023/12/21 12:33:22;;;;;;;1.50;1.40;;;8.60;1.00;;;;;;5004427;28;20507;-89
2023/12/21 12:35:50;;;;;;;1.47;1.37;;;8.50;1.00;;;;;;5005276;28;20441;-89
2023/12/21 12:38:17;;;;;;;3.67;1.57;;;8.50;1.00;;;;;;5001780;28;20451;-88
2023/12/21 12:40:47;;;;;;;3.57;1.70;;;8.50;1.00;;;;;;5015400;28;20415;-88
2023/12/21 12:43:14;;;;;;;2.53;2.30;;;8.50;1.00;;;;;;5020128;28;20521;-89
2023/12/21 12:45:42;;;;;;;1.70;1.50;;;8.50;1.00;;;;;;5020843;28;20457;-89
2023/12/21 12:48:12;;;;;;;2.03;1.93;;;8.50;1.00;;;;;;5020795;28;20446;-88
2023/12/21 12:50:39;;;;;;;1.40;1.30;;;8.50;1.00;;;;;;5016765;28;20771;-89
2023/12/21 12:53:09;;;;;;;1.50;1.40;;;8.50;1.00;;;;;;5010749;28;20488;-89
2023/12/21 12:55:36;;;;;;;1.50;1.40;;;8.50;1.00;;;;;;5009271;28;20418;-88
2023/12/21 12:58:04;;;;;;;1.37;1.20;;;8.50;1.00;;;;;;5008770;28;20423;-88
2023/12/21 13:00:31;;;;;;;1.63;1.53;;;8.50;1.00;;;;;;5004817;28;20475;-89
2023/12/21 13:02:59;;;;;;;1.50;1.40;;;8.50;1.00;;;;;;5016226;28;20515;-89
2023/12/21 13:05:26;;;;;;;1.60;1.50;;;8.50;1.00;;;;;;5020515;28;20488;-88